sensor_id;sensor_type;location;lat;lon;timestamp;P1;durP1;ratioP1;P2;durP2;ratioP2
36457;SDS011;22480;50.546;12.292;2023-06-26T00:01:15;5.95;;;4.68;;
36457;SDS011;22480;50.546;12.292;2023-06-26T00:03:41;5.32;;;4.82;;
36457;SDS011;22480;50.546;12.292;2023-06-26T00:06:06;5.78;;;4.97;;
36457;SDS011;22480;50.546;12.292;2023-06-26T00:08:32;5.53;;;4.82;;
36457;SDS011;22480;50.546;12.292;2023-06-26T00:10:58;6.97;;;4.65;;
36457;SDS011;22480;50.546;12.292;2023-06-26T00:13:24;7.13;;;5.03;;
36457;SDS011;22480;50.546;12.292;2023-06-26T00:15:50;7.13;;;5.03;;
36457;SDS011;22480;50.546;12.292;2023-06-26T00:18:16;6.30;;;4.43;;
36457;SDS011;22480;50.546;12.292;2023-06-26T00:20:41;6.80;;;5.30;;
36457;SDS011;22480;50.546;12.292;2023-06-26T00:23:07;6.57;;;4.38;;
36457;SDS011;22480;50.546;12.292;2023-06-26T00:25:33;6.68;;;4.55;;
36457;SDS011;22480;50.546;12.292;2023-06-26T00:27:59;6.90;;;4.60;;
36457;SDS011;22480;50.546;12.292;2023-06-26T00:30:25;6.30;;;4.30;;
36457;SDS011;22480;50.546;12.292;2023-06-26T00:32:50;4.85;;;4.18;;
36457;SDS011;22480;50.546;12.292;2023-06-26T00:35:16;5.82;;;5.10;;
36457;SDS011;22480;50.546;12.292;2023-06-26T00:37:43;6.82;;;5.30;;
36457;SDS011;22480;50.546;12.292;2023-06-26T00:40:09;6.10;;;4.85;;
36457;SDS011;22480;50.546;12.292;2023-06-26T00:42:35;6.38;;;5.00;;
36457;SDS011;22480;50.546;12.292;2023-06-26T00:45:01;7.80;;;4.80;;
36457;SDS011;22480;50.546;12.292;2023-06-26T00:47:29;8.68;;;5.20;;
36457;SDS011;22480;50.546;12.292;2023-06-26T00:49:54;8.02;;;4.97;;
36457;SDS011;22480;50.546;12.292;2023-06-26T00:52:21;5.90;;;4.65;;
36457;SDS011;22480;50.546;12.292;2023-06-26T00:54:50;6.90;;;4.97;;
36457;SDS011;22480;50.546;12.292;2023-06-26T00:57:16;5.53;;;4.60;;
36457;SDS011;22480;50.546;12.292;2023-06-26T00:59:42;6.07;;;4.90;;
36457;SDS011;22480;50.546;12.292;2023-06-26T01:02:08;8.27;;;5.65;;
36457;SDS011;22480;50.546;12.292;2023-06-26T01:04:35;6.22;;;5.00;;
36457;SDS011;22480;50.546;12.292;2023-06-26T01:07:01;6.18;;;4.55;;
36457;SDS011;22480;50.546;12.292;2023-06-26T01:09:27;7.32;;;4.72;;
36457;SDS011;22480;50.546;12.292;2023-06-26T01:11:55;6.90;;;4.82;;
36457;SDS011;22480;50.546;12.292;2023-06-26T01:14:21;5.65;;;4.93;;
36457;SDS011;22480;50.546;12.292;2023-06-26T01:16:46;7.18;;;5.28;;
36457;SDS011;22480;50.546;12.292;2023-06-26T01:19:24;7.18;;;4.90;;
36457;SDS011;22480;50.546;12.292;2023-06-26T01:24:39;6.43;;;5.78;;
36457;SDS011;22480;50.546;12.292;2023-06-26T01:27:17;6.30;;;4.65;;
36457;SDS011;22480;50.546;12.292;2023-06-26T01:29:44;5.30;;;4.80;;
36457;SDS011;22480;50.546;12.292;2023-06-26T01:32:11;6.50;;;4.80;;
36457;SDS011;22480;50.546;12.292;2023-06-26T01:34:37;7.90;;;5.40;;
36457;SDS011;22480;50.546;12.292;2023-06-26T01:37:03;7.60;;;5.43;;
36457;SDS011;22480;50.546;12.292;2023-06-26T01:39:29;5.43;;;4.93;;
36457;SDS011;22480;50.546;12.292;2023-06-26T01:41:55;5.90;;;5.30;;
36457;SDS011;22480;50.546;12.292;2023-06-26T01:46:56;8.75;;;4.80;;
36457;SDS011;22480;50.546;12.292;2023-06-26T01:54:34;6.25;;;5.32;;
36457;SDS011;22480;50.546;12.292;2023-06-26T01:57:04;5.97;;;5.38;;
36457;SDS011;22480;50.546;12.292;2023-06-26T01:59:31;8.52;;;6.32;;
36457;SDS011;22480;50.546;12.292;2023-06-26T02:02:00;6.88;;;5.00;;
36457;SDS011;22480;50.546;12.292;2023-06-26T02:04:26;9.60;;;6.25;;
36457;SDS011;22480;50.546;12.292;2023-06-26T02:06:52;6.38;;;5.68;;
36457;SDS011;22480;50.546;12.292;2023-06-26T02:09:18;7.85;;;5.68;;
36457;SDS011;22480;50.546;12.292;2023-06-26T02:11:44;6.50;;;5.82;;
36457;SDS011;22480;50.546;12.292;2023-06-26T02:14:10;7.60;;;6.05;;
36457;SDS011;22480;50.546;12.292;2023-06-26T02:16:37;7.40;;;5.78;;
36457;SDS011;22480;50.546;12.292;2023-06-26T02:19:02;8.77;;;6.03;;
36457;SDS011;22480;50.546;12.292;2023-06-26T02:21:28;6.68;;;5.97;;
36457;SDS011;22480;50.546;12.292;2023-06-26T02:23:55;6.60;;;5.90;;
36457;SDS011;22480;50.546;12.292;2023-06-26T02:26:21;7.97;;;6.40;;
36457;SDS011;22480;50.546;12.292;2023-06-26T02:28:46;7.30;;;6.53;;
36457;SDS011;22480;50.546;12.292;2023-06-26T02:31:12;9.57;;;5.95;;
36457;SDS011;22480;50.546;12.292;2023-06-26T02:33:38;10.95;;;6.25;;
36457;SDS011;22480;50.546;12.292;2023-06-26T02:36:04;7.93;;;6.32;;
36457;SDS011;22480;50.546;12.292;2023-06-26T02:38:31;7.57;;;5.97;;
36457;SDS011;22480;50.546;12.292;2023-06-26T02:40:58;6.07;;;5.47;;
36457;SDS011;22480;50.546;12.292;2023-06-26T02:43:23;7.18;;;5.68;;
36457;SDS011;22480;50.546;12.292;2023-06-26T02:45:49;6.68;;;5.90;;
36457;SDS011;22480;50.546;12.292;2023-06-26T02:48:15;8.13;;;6.13;;
36457;SDS011;22480;50.546;12.292;2023-06-26T02:50:42;9.02;;;6.55;;
36457;SDS011;22480;50.546;12.292;2023-06-26T02:53:12;11.40;;;6.13;;
36457;SDS011;22480;50.546;12.292;2023-06-26T02:55:41;8.13;;;6.38;;
36457;SDS011;22480;50.546;12.292;2023-06-26T02:58:07;6.97;;;6.28;;
36457;SDS011;22480;50.546;12.292;2023-06-26T03:00:33;6.15;;;5.35;;
36457;SDS011;22480;50.546;12.292;2023-06-26T03:03:02;7.38;;;6.25;;
36457;SDS011;22480;50.546;12.292;2023-06-26T03:05:28;7.53;;;6.05;;
36457;SDS011;22480;50.546;12.292;2023-06-26T03:07:55;7.75;;;6.22;;
36457;SDS011;22480;50.546;12.292;2023-06-26T03:10:21;7.53;;;5.57;;
36457;SDS011;22480;50.546;12.292;2023-06-26T03:12:47;6.63;;;5.97;;
36457;SDS011;22480;50.546;12.292;2023-06-26T03:15:14;9.00;;;6.13;;
36457;SDS011;22480;50.546;12.292;2023-06-26T03:17:40;7.50;;;5.95;;
36457;SDS011;22480;50.546;12.292;2023-06-26T03:20:12;7.00;;;6.00;;
36457;SDS011;22480;50.546;12.292;2023-06-26T03:22:45;6.07;;;5.20;;
36457;SDS011;22480;50.546;12.292;2023-06-26T03:25:12;7.10;;;6.13;;
36457;SDS011;22480;50.546;12.292;2023-06-26T03:27:38;6.78;;;5.70;;
36457;SDS011;22480;50.546;12.292;2023-06-26T03:30:04;9.93;;;6.53;;
36457;SDS011;22480;50.546;12.292;2023-06-26T03:32:33;8.25;;;5.75;;
36457;SDS011;22480;50.546;12.292;2023-06-26T03:34:59;7.20;;;5.45;;
36457;SDS011;22480;50.546;12.292;2023-06-26T03:37:28;6.20;;;5.60;;
36457;SDS011;22480;50.546;12.292;2023-06-26T03:39:54;6.57;;;5.88;;
36457;SDS011;22480;50.546;12.292;2023-06-26T03:42:20;6.03;;;5.43;;
36457;SDS011;22480;50.546;12.292;2023-06-26T03:44:46;6.68;;;5.38;;
36457;SDS011;22480;50.546;12.292;2023-06-26T03:47:13;6.18;;;5.57;;
36457;SDS011;22480;50.546;12.292;2023-06-26T03:49:38;11.45;;;5.97;;
36457;SDS011;22480;50.546;12.292;2023-06-26T03:52:04;6.50;;;5.82;;
36457;SDS011;22480;50.546;12.292;2023-06-26T03:54:30;6.70;;;6.10;;
36457;SDS011;22480;50.546;12.292;2023-06-26T03:56:59;6.90;;;6.22;;
36457;SDS011;22480;50.546;12.292;2023-06-26T03:59:24;8.50;;;6.20;;
36457;SDS011;22480;50.546;12.292;2023-06-26T04:01:50;6.80;;;6.03;;
36457;SDS011;22480;50.546;12.292;2023-06-26T04:04:16;9.30;;;6.32;;
36457;SDS011;22480;50.546;12.292;2023-06-26T04:06:42;8.00;;;6.10;;
36457;SDS011;22480;50.546;12.292;2023-06-26T04:09:08;8.07;;;6.00;;
36457;SDS011;22480;50.546;12.292;2023-06-26T04:11:33;11.80;;;5.90;;
36457;SDS011;22480;50.546;12.292;2023-06-26T04:13:59;7.30;;;6.38;;
36457;SDS011;22480;50.546;12.292;2023-06-26T04:16:25;7.32;;;5.82;;
36457;SDS011;22480;50.546;12.292;2023-06-26T04:18:51;8.15;;;5.97;;
36457;SDS011;22480;50.546;12.292;2023-06-26T04:21:18;7.63;;;6.63;;
36457;SDS011;22480;50.546;12.292;2023-06-26T04:23:44;8.02;;;5.55;;
36457;SDS011;22480;50.546;12.292;2023-06-26T04:26:10;6.32;;;5.70;;
36457;SDS011;22480;50.546;12.292;2023-06-26T04:28:40;7.65;;;5.53;;
36457;SDS011;22480;50.546;12.292;2023-06-26T04:31:05;6.60;;;5.20;;
36457;SDS011;22480;50.546;12.292;2023-06-26T04:33:31;7.68;;;5.72;;
36457;SDS011;22480;50.546;12.292;2023-06-26T04:35:57;6.18;;;5.43;;
36457;SDS011;22480;50.546;12.292;2023-06-26T04:38:23;6.20;;;4.88;;
36457;SDS011;22480;50.546;12.292;2023-06-26T04:40:48;6.00;;;5.45;;
36457;SDS011;22480;50.546;12.292;2023-06-26T04:43:14;6.10;;;5.50;;
36457;SDS011;22480;50.546;12.292;2023-06-26T04:45:40;5.95;;;5.35;;
36457;SDS011;22480;50.546;12.292;2023-06-26T04:48:06;7.07;;;5.60;;
36457;SDS011;22480;50.546;12.292;2023-06-26T04:50:32;5.20;;;4.70;;
36457;SDS011;22480;50.546;12.292;2023-06-26T04:52:58;6.78;;;5.13;;
36457;SDS011;22480;50.546;12.292;2023-06-26T04:55:25;6.20;;;5.20;;
36457;SDS011;22480;50.546;12.292;2023-06-26T04:57:51;5.82;;;5.20;;
36457;SDS011;22480;50.546;12.292;2023-06-26T05:00:17;5.38;;;4.88;;
36457;SDS011;22480;50.546;12.292;2023-06-26T05:02:43;5.60;;;5.10;;
36457;SDS011;22480;50.546;12.292;2023-06-26T05:05:08;6.75;;;5.07;;
36457;SDS011;22480;50.546;12.292;2023-06-26T05:07:35;5.45;;;4.93;;
36457;SDS011;22480;50.546;12.292;2023-06-26T05:10:01;5.80;;;5.30;;
36457;SDS011;22480;50.546;12.292;2023-06-26T05:12:27;7.68;;;5.40;;
36457;SDS011;22480;50.546;12.292;2023-06-26T05:14:53;5.82;;;5.32;;
36457;SDS011;22480;50.546;12.292;2023-06-26T05:17:19;7.38;;;5.28;;
36457;SDS011;22480;50.546;12.292;2023-06-26T05:19:44;8.35;;;4.85;;
36457;SDS011;22480;50.546;12.292;2023-06-26T05:22:10;6.30;;;5.45;;
36457;SDS011;22480;50.546;12.292;2023-06-26T05:24:38;7.30;;;5.10;;
36457;SDS011;22480;50.546;12.292;2023-06-26T05:27:05;6.22;;;5.25;;
36457;SDS011;22480;50.546;12.292;2023-06-26T05:29:31;6.95;;;5.05;;
36457;SDS011;22480;50.546;12.292;2023-06-26T05:31:57;5.07;;;4.45;;
36457;SDS011;22480;50.546;12.292;2023-06-26T05:34:24;7.32;;;5.15;;
36457;SDS011;22480;50.546;12.292;2023-06-26T05:36:51;6.32;;;4.60;;
36457;SDS011;22480;50.546;12.292;2023-06-26T05:39:17;5.93;;;5.05;;
36457;SDS011;22480;50.546;12.292;2023-06-26T05:41:43;6.95;;;5.18;;
36457;SDS011;22480;50.546;12.292;2023-06-26T05:44:09;5.95;;;4.93;;
36457;SDS011;22480;50.546;12.292;2023-06-26T05:46:35;7.03;;;5.25;;
36457;SDS011;22480;50.546;12.292;2023-06-26T05:49:01;5.53;;;4.88;;
36457;SDS011;22480;50.546;12.292;2023-06-26T05:51:28;8.43;;;5.28;;
36457;SDS011;22480;50.546;12.292;2023-06-26T05:53:54;7.72;;;4.85;;
36457;SDS011;22480;50.546;12.292;2023-06-26T05:56:20;7.00;;;4.72;;
36457;SDS011;22480;50.546;12.292;2023-06-26T05:58:46;4.95;;;4.30;;
36457;SDS011;22480;50.546;12.292;2023-06-26T06:01:12;5.97;;;5.05;;
36457;SDS011;22480;50.546;12.292;2023-06-26T06:03:38;4.85;;;4.38;;
36457;SDS011;22480;50.546;12.292;2023-06-26T06:06:04;5.25;;;4.60;;
36457;SDS011;22480;50.546;12.292;2023-06-26T06:08:30;6.03;;;5.00;;
36457;SDS011;22480;50.546;12.292;2023-06-26T06:10:56;5.32;;;4.50;;
36457;SDS011;22480;50.546;12.292;2023-06-26T06:13:22;5.15;;;4.70;;
36457;SDS011;22480;50.546;12.292;2023-06-26T06:15:48;5.13;;;4.20;;
36457;SDS011;22480;50.546;12.292;2023-06-26T06:18:14;4.78;;;4.28;;
36457;SDS011;22480;50.546;12.292;2023-06-26T06:20:40;7.18;;;4.60;;
36457;SDS011;22480;50.546;12.292;2023-06-26T06:23:05;5.82;;;5.32;;
36457;SDS011;22480;50.546;12.292;2023-06-26T06:25:31;7.18;;;5.07;;
36457;SDS011;22480;50.546;12.292;2023-06-26T06:27:57;5.20;;;4.70;;
36457;SDS011;22480;50.546;12.292;2023-06-26T06:30:22;5.05;;;4.55;;
36457;SDS011;22480;50.546;12.292;2023-06-26T06:32:48;7.60;;;4.95;;
36457;SDS011;22480;50.546;12.292;2023-06-26T06:35:19;9.00;;;5.18;;
36457;SDS011;22480;50.546;12.292;2023-06-26T06:37:45;5.80;;;5.10;;
36457;SDS011;22480;50.546;12.292;2023-06-26T06:40:11;6.75;;;4.38;;
36457;SDS011;22480;50.546;12.292;2023-06-26T06:42:37;6.03;;;4.70;;
36457;SDS011;22480;50.546;12.292;2023-06-26T06:45:03;5.35;;;4.85;;
36457;SDS011;22480;50.546;12.292;2023-06-26T06:47:33;7.45;;;5.05;;
36457;SDS011;22480;50.546;12.292;2023-06-26T06:49:59;5.60;;;4.60;;
36457;SDS011;22480;50.546;12.292;2023-06-26T06:52:42;5.65;;;5.10;;
36457;SDS011;22480;50.546;12.292;2023-06-26T06:55:08;7.93;;;5.03;;
36457;SDS011;22480;50.546;12.292;2023-06-26T06:57:35;6.00;;;5.40;;
36457;SDS011;22480;50.546;12.292;2023-06-26T07:00:07;5.90;;;4.70;;
36457;SDS011;22480;50.546;12.292;2023-06-26T07:02:34;5.90;;;5.30;;
36457;SDS011;22480;50.546;12.292;2023-06-26T07:05:01;6.28;;;5.18;;
36457;SDS011;22480;50.546;12.292;2023-06-26T07:07:29;6.15;;;5.00;;
36457;SDS011;22480;50.546;12.292;2023-06-26T07:09:59;6.85;;;4.30;;
36457;SDS011;22480;50.546;12.292;2023-06-26T07:12:25;5.70;;;4.93;;
36457;SDS011;22480;50.546;12.292;2023-06-26T07:14:51;5.78;;;4.97;;
36457;SDS011;22480;50.546;12.292;2023-06-26T07:17:16;5.32;;;4.82;;
36457;SDS011;22480;50.546;12.292;2023-06-26T07:19:42;7.38;;;4.72;;
36457;SDS011;22480;50.546;12.292;2023-06-26T07:22:08;5.75;;;4.85;;
36457;SDS011;22480;50.546;12.292;2023-06-26T07:24:34;10.00;;;5.30;;
36457;SDS011;22480;50.546;12.292;2023-06-26T07:26:59;6.13;;;5.53;;
36457;SDS011;22480;50.546;12.292;2023-06-26T07:29:26;5.93;;;5.10;;
36457;SDS011;22480;50.546;12.292;2023-06-26T07:31:51;5.63;;;4.68;;
36457;SDS011;22480;50.546;12.292;2023-06-26T07:34:17;6.10;;;5.03;;
36457;SDS011;22480;50.546;12.292;2023-06-26T07:36:43;6.57;;;5.18;;
36457;SDS011;22480;50.546;12.292;2023-06-26T07:39:08;5.63;;;5.03;;
36457;SDS011;22480;50.546;12.292;2023-06-26T07:41:34;6.93;;;5.40;;
36457;SDS011;22480;50.546;12.292;2023-06-26T07:44:00;7.38;;;5.25;;
36457;SDS011;22480;50.546;12.292;2023-06-26T07:46:25;6.53;;;5.65;;
36457;SDS011;22480;50.546;12.292;2023-06-26T07:48:51;5.72;;;5.22;;
36457;SDS011;22480;50.546;12.292;2023-06-26T07:51:17;6.10;;;4.85;;
36457;SDS011;22480;50.546;12.292;2023-06-26T07:53:42;6.95;;;4.97;;
36457;SDS011;22480;50.546;12.292;2023-06-26T07:56:08;6.05;;;5.45;;
36457;SDS011;22480;50.546;12.292;2023-06-26T07:58:34;5.30;;;4.82;;
36457;SDS011;22480;50.546;12.292;2023-06-26T08:00:59;8.18;;;5.72;;
36457;SDS011;22480;50.546;12.292;2023-06-26T08:03:25;5.60;;;4.72;;
36457;SDS011;22480;50.546;12.292;2023-06-26T08:05:51;7.07;;;5.00;;
36457;SDS011;22480;50.546;12.292;2023-06-26T08:08:17;6.10;;;5.07;;
36457;SDS011;22480;50.546;12.292;2023-06-26T08:10:43;5.85;;;5.20;;
36457;SDS011;22480;50.546;12.292;2023-06-26T08:13:08;6.18;;;5.43;;
36457;SDS011;22480;50.546;12.292;2023-06-26T08:15:34;8.52;;;5.43;;
36457;SDS011;22480;50.546;12.292;2023-06-26T08:18:00;6.88;;;5.28;;
36457;SDS011;22480;50.546;12.292;2023-06-26T08:20:26;6.72;;;5.13;;
36457;SDS011;22480;50.546;12.292;2023-06-26T08:22:53;7.90;;;5.75;;
36457;SDS011;22480;50.546;12.292;2023-06-26T08:25:19;6.72;;;5.43;;
36457;SDS011;22480;50.546;12.292;2023-06-26T08:27:45;5.45;;;4.95;;
36457;SDS011;22480;50.546;12.292;2023-06-26T08:30:11;6.40;;;4.80;;
36457;SDS011;22480;50.546;12.292;2023-06-26T08:32:38;5.95;;;5.20;;
36457;SDS011;22480;50.546;12.292;2023-06-26T08:35:05;5.90;;;5.30;;
36457;SDS011;22480;50.546;12.292;2023-06-26T08:37:31;8.73;;;4.70;;
36457;SDS011;22480;50.546;12.292;2023-06-26T08:39:58;6.85;;;5.28;;
36457;SDS011;22480;50.546;12.292;2023-06-26T08:44:53;5.40;;;4.90;;
36457;SDS011;22480;50.546;12.292;2023-06-26T08:47:19;6.70;;;5.20;;
36457;SDS011;22480;50.546;12.292;2023-06-26T08:49:53;7.63;;;5.07;;
36457;SDS011;22480;50.546;12.292;2023-06-26T08:52:30;5.50;;;4.85;;
36457;SDS011;22480;50.546;12.292;2023-06-26T08:55:01;6.00;;;5.40;;
36457;SDS011;22480;50.546;12.292;2023-06-26T08:57:29;8.85;;;5.25;;
36457;SDS011;22480;50.546;12.292;2023-06-26T08:59:57;6.00;;;5.40;;
36457;SDS011;22480;50.546;12.292;2023-06-26T09:02:23;6.32;;;4.40;;
36457;SDS011;22480;50.546;12.292;2023-06-26T09:04:49;7.28;;;5.75;;
36457;SDS011;22480;50.546;12.292;2023-06-26T09:07:16;7.05;;;4.97;;
36457;SDS011;22480;50.546;12.292;2023-06-26T09:09:42;5.60;;;4.72;;
36457;SDS011;22480;50.546;12.292;2023-06-26T09:12:08;6.70;;;5.25;;
36457;SDS011;22480;50.546;12.292;2023-06-26T09:14:35;5.93;;;5.35;;
36457;SDS011;22480;50.546;12.292;2023-06-26T09:17:02;5.55;;;4.97;;
36457;SDS011;22480;50.546;12.292;2023-06-26T09:19:28;5.95;;;5.18;;
36457;SDS011;22480;50.546;12.292;2023-06-26T09:21:54;5.07;;;4.55;;
36457;SDS011;22480;50.546;12.292;2023-06-26T09:24:21;6.47;;;5.07;;
36457;SDS011;22480;50.546;12.292;2023-06-26T09:26:47;8.23;;;5.45;;
36457;SDS011;22480;50.546;12.292;2023-06-26T09:29:14;6.75;;;5.28;;
36457;SDS011;22480;50.546;12.292;2023-06-26T09:31:43;5.95;;;5.35;;
36457;SDS011;22480;50.546;12.292;2023-06-26T09:34:09;8.13;;;5.80;;
36457;SDS011;22480;50.546;12.292;2023-06-26T09:36:35;6.75;;;6.05;;
36457;SDS011;22480;50.546;12.292;2023-06-26T09:39:02;6.60;;;5.10;;
36457;SDS011;22480;50.546;12.292;2023-06-26T09:41:35;6.10;;;5.50;;
36457;SDS011;22480;50.546;12.292;2023-06-26T09:44:03;8.30;;;5.30;;
36457;SDS011;22480;50.546;12.292;2023-06-26T09:46:31;5.75;;;4.68;;
36457;SDS011;22480;50.546;12.292;2023-06-26T09:49:03;6.38;;;5.22;;
36457;SDS011;22480;50.546;12.292;2023-06-26T09:51:34;9.85;;;5.75;;
36457;SDS011;22480;50.546;12.292;2023-06-26T09:54:01;6.20;;;5.60;;
36457;SDS011;22480;50.546;12.292;2023-06-26T09:56:27;8.93;;;5.10;;
36457;SDS011;22480;50.546;12.292;2023-06-26T09:59:04;6.68;;;5.88;;
36457;SDS011;22480;50.546;12.292;2023-06-26T10:01:31;7.72;;;5.30;;
36457;SDS011;22480;50.546;12.292;2023-06-26T10:03:57;5.55;;;5.05;;
36457;SDS011;22480;50.546;12.292;2023-06-26T10:06:39;6.05;;;5.28;;
36457;SDS011;22480;50.546;12.292;2023-06-26T10:09:11;5.35;;;4.57;;
36457;SDS011;22480;50.546;12.292;2023-06-26T10:14:15;6.10;;;5.15;;
36457;SDS011;22480;50.546;12.292;2023-06-26T10:16:41;6.75;;;5.43;;
36457;SDS011;22480;50.546;12.292;2023-06-26T10:19:09;6.05;;;4.85;;
36457;SDS011;22480;50.546;12.292;2023-06-26T10:21:37;5.70;;;5.03;;
36457;SDS011;22480;50.546;12.292;2023-06-26T10:24:05;6.15;;;5.00;;
36457;SDS011;22480;50.546;12.292;2023-06-26T10:26:31;5.80;;;5.30;;
36457;SDS011;22480;50.546;12.292;2023-06-26T10:29:02;7.35;;;4.68;;
36457;SDS011;22480;50.546;12.292;2023-06-26T10:31:29;5.70;;;4.93;;
36457;SDS011;22480;50.546;12.292;2023-06-26T10:33:56;7.10;;;4.65;;
36457;SDS011;22480;50.546;12.292;2023-06-26T10:36:30;4.90;;;4.40;;
36457;SDS011;22480;50.546;12.292;2023-06-26T10:39:02;8.60;;;5.15;;
36457;SDS011;22480;50.546;12.292;2023-06-26T10:41:39;5.03;;;4.63;;
36457;SDS011;22480;50.546;12.292;2023-06-26T10:44:12;5.53;;;4.47;;
36457;SDS011;22480;50.546;12.292;2023-06-26T10:46:48;5.57;;;5.00;;
36457;SDS011;22480;50.546;12.292;2023-06-26T10:49:18;5.55;;;4.85;;
36457;SDS011;22480;50.546;12.292;2023-06-26T10:51:46;5.35;;;4.65;;
36457;SDS011;22480;50.546;12.292;2023-06-26T10:54:16;8.73;;;4.70;;
36457;SDS011;22480;50.546;12.292;2023-06-26T10:56:43;5.00;;;4.50;;
36457;SDS011;22480;50.546;12.292;2023-06-26T10:59:11;4.78;;;4.38;;
36457;SDS011;22480;50.546;12.292;2023-06-26T11:01:40;5.03;;;4.60;;
36457;SDS011;22480;50.546;12.292;2023-06-26T11:04:09;4.68;;;4.28;;
36457;SDS011;22480;50.546;12.292;2023-06-26T11:06:36;4.75;;;4.35;;
36457;SDS011;22480;50.546;12.292;2023-06-26T11:09:07;6.15;;;4.43;;
36457;SDS011;22480;50.546;12.292;2023-06-26T11:14:23;5.03;;;4.53;;
36457;SDS011;22480;50.546;12.292;2023-06-26T11:16:50;5.15;;;4.65;;
36457;SDS011;22480;50.546;12.292;2023-06-26T11:19:17;5.57;;;4.88;;
36457;SDS011;22480;50.546;12.292;2023-06-26T11:21:43;6.10;;;4.85;;
36457;SDS011;22480;50.546;12.292;2023-06-26T11:24:11;5.35;;;4.85;;
36457;SDS011;22480;50.546;12.292;2023-06-26T11:26:38;4.95;;;4.45;;
36457;SDS011;22480;50.546;12.292;2023-06-26T11:29:07;6.90;;;4.90;;
36457;SDS011;22480;50.546;12.292;2023-06-26T11:31:35;5.32;;;4.82;;
36457;SDS011;22480;50.546;12.292;2023-06-26T11:34:03;5.07;;;4.67;;
36457;SDS011;22480;50.546;12.292;2023-06-26T11:36:31;4.85;;;4.28;;
36457;SDS011;22480;50.546;12.292;2023-06-26T11:38:58;5.88;;;4.95;;
36457;SDS011;22480;50.546;12.292;2023-06-26T11:41:29;5.18;;;4.68;;
36457;SDS011;22480;50.546;12.292;2023-06-26T11:43:55;4.97;;;4.43;;
36457;SDS011;22480;50.546;12.292;2023-06-26T11:46:25;4.93;;;4.45;;
36457;SDS011;22480;50.546;12.292;2023-06-26T11:48:50;4.72;;;4.32;;
36457;SDS011;22480;50.546;12.292;2023-06-26T11:51:17;5.25;;;4.85;;
36457;SDS011;22480;50.546;12.292;2023-06-26T11:53:43;6.15;;;4.93;;
36457;SDS011;22480;50.546;12.292;2023-06-26T11:56:10;5.15;;;4.53;;
36457;SDS011;22480;50.546;12.292;2023-06-26T11:58:36;6.90;;;4.70;;
36457;SDS011;22480;50.546;12.292;2023-06-26T12:01:20;4.60;;;4.20;;
36457;SDS011;22480;50.546;12.292;2023-06-26T12:03:47;5.47;;;4.97;;
36457;SDS011;22480;50.546;12.292;2023-06-26T12:06:14;4.45;;;4.07;;
36457;SDS011;22480;50.546;12.292;2023-06-26T12:08:41;5.20;;;4.70;;
36457;SDS011;22480;50.546;12.292;2023-06-26T12:11:07;5.25;;;4.75;;
36457;SDS011;22480;50.546;12.292;2023-06-26T12:13:33;8.20;;;4.70;;
36457;SDS011;22480;50.546;12.292;2023-06-26T12:15:59;6.68;;;4.68;;
36457;SDS011;22480;50.546;12.292;2023-06-26T12:18:25;4.80;;;4.40;;
36457;SDS011;22480;50.546;12.292;2023-06-26T12:20:52;5.43;;;4.88;;
36457;SDS011;22480;50.546;12.292;2023-06-26T12:23:17;4.90;;;4.40;;
36457;SDS011;22480;50.546;12.292;2023-06-26T12:25:43;4.70;;;4.15;;
36457;SDS011;22480;50.546;12.292;2023-06-26T12:28:18;6.20;;;4.38;;
36457;SDS011;22480;50.546;12.292;2023-06-26T12:30:47;6.25;;;4.43;;
36457;SDS011;22480;50.546;12.292;2023-06-26T12:35:59;4.95;;;4.28;;
36457;SDS011;22480;50.546;12.292;2023-06-26T12:38:32;5.75;;;4.80;;
36457;SDS011;22480;50.546;12.292;2023-06-26T12:40:58;6.32;;;4.57;;
36457;SDS011;22480;50.546;12.292;2023-06-26T12:43:25;6.47;;;4.85;;
36457;SDS011;22480;50.546;12.292;2023-06-26T12:45:55;5.40;;;4.10;;
36457;SDS011;22480;50.546;12.292;2023-06-26T12:48:21;5.95;;;4.60;;
36457;SDS011;22480;50.546;12.292;2023-06-26T12:51:07;6.07;;;5.13;;
36457;SDS011;22480;50.546;12.292;2023-06-26T12:53:34;4.78;;;3.85;;
36457;SDS011;22480;50.546;12.292;2023-06-26T12:55:59;5.65;;;4.32;;
36457;SDS011;22480;50.546;12.292;2023-06-26T12:58:25;4.88;;;4.47;;
36457;SDS011;22480;50.546;12.292;2023-06-26T13:00:51;4.43;;;4.03;;
36457;SDS011;22480;50.546;12.292;2023-06-26T13:03:19;4.65;;;4.05;;
36457;SDS011;22480;50.546;12.292;2023-06-26T13:05:46;5.03;;;4.53;;
36457;SDS011;22480;50.546;12.292;2023-06-26T13:08:12;5.15;;;4.50;;
36457;SDS011;22480;50.546;12.292;2023-06-26T13:10:38;5.20;;;4.70;;
36457;SDS011;22480;50.546;12.292;2023-06-26T13:13:05;5.18;;;4.47;;
36457;SDS011;22480;50.546;12.292;2023-06-26T13:15:30;5.30;;;4.70;;
36457;SDS011;22480;50.546;12.292;2023-06-26T13:17:56;5.85;;;4.13;;
36457;SDS011;22480;50.546;12.292;2023-06-26T13:20:22;4.50;;;3.67;;
36457;SDS011;22480;50.546;12.292;2023-06-26T13:22:47;4.45;;;4.05;;
36457;SDS011;22480;50.546;12.292;2023-06-26T13:25:13;5.40;;;4.78;;
36457;SDS011;22480;50.546;12.292;2023-06-26T13:27:39;5.13;;;4.60;;
36457;SDS011;22480;50.546;12.292;2023-06-26T13:30:05;4.57;;;4.18;;
36457;SDS011;22480;50.546;12.292;2023-06-26T13:32:31;6.30;;;4.22;;
36457;SDS011;22480;50.546;12.292;2023-06-26T13:34:57;4.90;;;4.45;;
36457;SDS011;22480;50.546;12.292;2023-06-26T13:37:23;5.10;;;4.60;;
36457;SDS011;22480;50.546;12.292;2023-06-26T13:39:49;4.55;;;4.10;;
36457;SDS011;22480;50.546;12.292;2023-06-26T13:42:17;4.88;;;4.35;;
36457;SDS011;22480;50.546;12.292;2023-06-26T13:44:43;6.18;;;4.40;;
36457;SDS011;22480;50.546;12.292;2023-06-26T13:47:11;6.45;;;4.70;;
36457;SDS011;22480;50.546;12.292;2023-06-26T13:52:04;6.63;;;4.88;;
36457;SDS011;22480;50.546;12.292;2023-06-26T13:54:33;4.60;;;4.20;;
36457;SDS011;22480;50.546;12.292;2023-06-26T13:57:00;6.97;;;4.00;;
36457;SDS011;22480;50.546;12.292;2023-06-26T13:59:27;5.47;;;4.95;;
36457;SDS011;22480;50.546;12.292;2023-06-26T14:01:53;6.53;;;4.80;;
36457;SDS011;22480;50.546;12.292;2023-06-26T14:04:19;6.50;;;4.65;;
36457;SDS011;22480;50.546;12.292;2023-06-26T14:06:46;5.72;;;5.10;;
36457;SDS011;22480;50.546;12.292;2023-06-26T14:09:11;5.50;;;4.97;;
36457;SDS011;22480;50.546;12.292;2023-06-26T14:11:37;6.38;;;4.82;;
36457;SDS011;22480;50.546;12.292;2023-06-26T14:14:03;6.50;;;4.72;;
36457;SDS011;22480;50.546;12.292;2023-06-26T14:16:28;6.05;;;5.45;;
36457;SDS011;22480;50.546;12.292;2023-06-26T14:18:55;6.03;;;5.20;;
36457;SDS011;22480;50.546;12.292;2023-06-26T14:21:21;6.18;;;5.55;;
36457;SDS011;22480;50.546;12.292;2023-06-26T14:23:46;11.10;;;7.05;;
36457;SDS011;22480;50.546;12.292;2023-06-26T14:26:12;5.90;;;5.40;;
36457;SDS011;22480;50.546;12.292;2023-06-26T14:28:38;6.28;;;5.28;;
36457;SDS011;22480;50.546;12.292;2023-06-26T14:31:04;5.85;;;5.25;;
36457;SDS011;22480;50.546;12.292;2023-06-26T14:33:30;6.60;;;5.75;;
36457;SDS011;22480;50.546;12.292;2023-06-26T14:35:56;8.63;;;5.85;;
36457;SDS011;22480;50.546;12.292;2023-06-26T14:38:21;5.95;;;5.35;;
36457;SDS011;22480;50.546;12.292;2023-06-26T14:40:47;6.75;;;5.90;;
36457;SDS011;22480;50.546;12.292;2023-06-26T14:43:13;8.55;;;5.90;;
36457;SDS011;22480;50.546;12.292;2023-06-26T14:45:38;6.80;;;5.35;;
36457;SDS011;22480;50.546;12.292;2023-06-26T14:48:04;6.35;;;5.65;;
36457;SDS011;22480;50.546;12.292;2023-06-26T14:50:30;7.38;;;6.20;;
36457;SDS011;22480;50.546;12.292;2023-06-26T14:52:56;7.85;;;6.03;;
36457;SDS011;22480;50.546;12.292;2023-06-26T14:55:21;7.47;;;6.00;;